| Date | Time | Temp. (oF) | Dew Point (oF) | Rel. Hum. (%) | Press. (in.) | Wind Dir. | Wind Speed (mph) | Hourly Rainfall (in.) |
|
|---|---|---|---|---|---|---|---|---|---|
| 1 | 06/26 | 00:00 | 77 | 70 | 80 | 29.96 | W | 1 | 0.00 |
| 2 | 06/25 | 23:00 | 78 | 70 | 78 | 29.96 | SSW | 0 | 0.00 |
| 3 | 06/25 | 22:00 | 81 | 69 | 69 | 29.96 | SW | 0 | 0.00 |
| 4 | 06/25 | 21:00 | 86 | 69 | 59 | 29.94 | SW | 0 | 0.00 |
| 5 | 06/25 | 20:00 | 89 | 68 | 52 | 29.94 | W | 1 | 0.00 |
| 6 | 06/25 | 19:00 | 91 | 68 | 48 | 29.94 | WNW | 4 | 0.00 |
| 7 | 06/25 | 18:00 | 92 | 67 | 45 | 29.94 | W | 7 | 0.00 |
| 8 | 06/25 | 17:00 | 92 | 67 | 45 | 29.95 | WSW | 9 | 0.00 |
| 9 | 06/25 | 16:00 | 92 | 68 | 47 | 29.97 | NW | 4 | 0.00 |
| 10 | 06/25 | 15:00 | 92 | 69 | 48 | 29.99 | W | 7 | 0.00 |
| 11 | 06/25 | 14:00 | 91 | 67 | 47 | 30.01 | NW | 3 | 0.00 |
| 12 | 06/25 | 13:00 | 89 | 67 | 49 | 30.04 | WNW | 6 | 0.00 |
| 13 | 06/25 | 12:00 | 87 | 69 | 56 | 30.06 | WSW | 3 | 0.00 |
| 14 | 06/25 | 11:00 | 85 | 68 | 58 | 30.07 | W | 2 | 0.00 |
| 15 | 06/25 | 10:00 | 82 | 65 | 58 | 30.09 | NNW | 3 | 0.00 |
| 16 | 06/25 | 09:00 | 76 | 68 | 78 | 30.10 | SSW | 0 | 0.00 |
| 17 | 06/25 | 08:00 | 69 | 67 | 96 | 30.12 | SSW | 0 | 0.00 |
| 18 | 06/25 | 07:00 | 63 | 63 | 100 | 30.10 | WSW | 0 | 0.00 |
| 19 | 06/25 | 06:00 | 63 | 62 | 98 | 30.09 | WNW | 0 | 0.00 |
| 20 | 06/25 | 05:00 | 64 | 63 | 97 | 30.07 | WSW | 0 | 0.00 |
| 21 | 06/25 | 04:00 | 65 | 63 | 96 | 30.06 | WSW | 0 | 0.00 |
| 22 | 06/25 | 03:00 | 66 | 64 | 95 | 30.06 | NW | 0 | 0.00 |
| 23 | 06/25 | 02:00 | 67 | 64 | 92 | 30.05 | W | 0 | 0.00 |
| 24 | 06/25 | 01:00 | 69 | 64 | 87 | 30.04 | WSW | 0 | 0.00 |